createdAt,value
2019-05-05T00:00:06.668Z,2.10
2019-05-05T00:02:47.328Z,2.10
2019-05-05T00:05:26.172Z,2.10
2019-05-05T00:07:56.540Z,2.10
2019-05-05T00:10:34.793Z,2.00
2019-05-05T00:13:22.906Z,2.00
2019-05-05T00:16:15.062Z,2.00
2019-05-05T00:18:46.578Z,1.90
2019-05-05T00:21:16.655Z,1.90
2019-05-05T00:23:49.527Z,1.80
2019-05-05T00:26:19.673Z,1.80
2019-05-05T00:28:49.750Z,1.80
2019-05-05T00:31:24.242Z,1.80
2019-05-05T00:33:54.420Z,1.70
2019-05-05T00:36:24.828Z,1.70
2019-05-05T00:38:58.787Z,1.70
2019-05-05T00:41:28.809Z,1.70
2019-05-05T00:43:58.706Z,1.70
2019-05-05T00:46:59.256Z,1.70
2019-05-05T00:49:37.426Z,1.70
2019-05-05T00:52:01.922Z,1.70
2019-05-05T00:54:32.002Z,1.70
2019-05-05T00:57:04.316Z,1.60
2019-05-05T00:59:34.888Z,1.70
2019-05-05T01:02:38.668Z,1.70
2019-05-05T01:05:26.384Z,1.80
2019-05-05T01:07:59.977Z,1.70
2019-05-05T01:10:30.206Z,1.70
2019-05-05T01:13:00.273Z,1.70
2019-05-05T01:15:30.431Z,1.70
2019-05-05T01:18:02.161Z,1.80
2019-05-05T01:20:34.296Z,1.80
2019-05-05T01:23:06.435Z,1.70
2019-05-05T01:25:38.094Z,1.80
2019-05-05T01:28:08.725Z,1.80
2019-05-05T01:30:41.427Z,1.80
2019-05-05T01:33:17.383Z,1.70
2019-05-05T01:35:47.548Z,1.70
2019-05-05T01:38:28.721Z,1.70
2019-05-05T01:41:16.540Z,1.70
2019-05-05T01:43:47.152Z,1.70
2019-05-05T01:46:17.104Z,1.70
2019-05-05T01:48:47.185Z,1.70
2019-05-05T01:51:17.348Z,1.70
2019-05-05T01:53:50.155Z,1.80
2019-05-05T01:56:20.240Z,1.60
2019-05-05T01:58:50.705Z,1.70
2019-05-05T02:01:20.828Z,1.70
2019-05-05T02:03:54.918Z,1.70
2019-05-05T02:06:25.059Z,1.70
2019-05-05T02:08:55.329Z,1.70
2019-05-05T02:11:25.390Z,1.70
2019-05-05T02:13:57.282Z,1.70
2019-05-05T02:16:27.409Z,1.70
2019-05-05T02:18:57.523Z,1.80
2019-05-05T02:21:27.717Z,1.70
2019-05-05T02:23:57.911Z,1.70
2019-05-05T02:26:28.143Z,1.70
2019-05-05T02:29:08.392Z,1.70
2019-05-05T02:31:56.706Z,1.70
2019-05-05T02:34:29.069Z,1.70
2019-05-05T02:36:59.514Z,1.80
2019-05-05T02:39:34.247Z,1.70
2019-05-05T02:42:05.758Z,1.80
2019-05-05T02:44:37.205Z,1.70
2019-05-05T02:47:25.463Z,1.70
2019-05-05T02:49:57.027Z,1.70
2019-05-05T02:52:27.356Z,1.70
2019-05-05T02:54:57.618Z,1.70
2019-05-05T02:57:28.304Z,1.70
2019-05-05T03:00:04.554Z,1.80
2019-05-05T03:02:36.163Z,1.80
2019-05-05T03:05:06.400Z,1.90
2019-05-05T03:07:37.702Z,2.00
2019-05-05T03:10:08.093Z,2.00
2019-05-05T03:12:40.743Z,2.10
2019-05-05T03:15:15.616Z,2.10
2019-05-05T03:17:47.169Z,2.00
2019-05-05T03:20:17.415Z,2.00
2019-05-05T03:22:50.105Z,1.90
2019-05-05T03:25:20.516Z,1.90
2019-05-05T03:27:50.537Z,1.80
2019-05-05T03:30:21.017Z,1.80
2019-05-05T03:32:51.017Z,1.80
2019-05-05T03:35:21.280Z,1.80
2019-05-05T03:37:51.465Z,1.70
2019-05-05T03:40:29.192Z,1.70
2019-05-05T03:43:14.587Z,1.70
2019-05-05T03:45:54.118Z,1.70
2019-05-05T03:48:24.580Z,1.70
2019-05-05T03:50:58.323Z,1.70
2019-05-05T03:53:29.072Z,1.70
2019-05-05T03:56:00.834Z,1.70
2019-05-05T03:58:31.196Z,1.70
2019-05-05T04:02:03.922Z,1.70
2019-05-05T04:04:37.318Z,1.80
2019-05-05T04:07:07.629Z,1.80
2019-05-05T04:09:37.892Z,1.90
2019-05-05T04:12:08.493Z,2.10
2019-05-05T04:14:40.824Z,2.30
2019-05-05T04:17:28.569Z,2.50
2019-05-05T04:20:00.341Z,2.70
2019-05-05T04:22:34.160Z,2.90
2019-05-05T04:25:04.683Z,3.10
2019-05-05T04:27:35.484Z,3.20
2019-05-05T04:30:06.789Z,3.30
2019-05-05T04:32:36.739Z,3.40
2019-05-05T04:35:07.056Z,3.40
2019-05-05T04:37:37.258Z,3.40
2019-05-05T04:40:07.353Z,3.50
2019-05-05T04:42:37.394Z,3.60
2019-05-05T04:45:07.539Z,3.70
2019-05-05T04:47:39.977Z,4.10
2019-05-05T04:50:44.520Z,5.00
2019-05-05T04:53:19.482Z,6.10
2019-05-05T04:55:49.487Z,7.70
2019-05-05T04:58:18.589Z,9.00
2019-05-05T05:00:47.609Z,10.30
2019-05-05T05:03:24.916Z,11.40
2019-05-05T05:06:16.037Z,12.10
2019-05-05T05:08:45.129Z,13.00
2019-05-05T05:11:14.345Z,14.00
2019-05-05T05:13:44.027Z,14.50
2019-05-05T05:16:13.889Z,15.20
2019-05-05T05:18:44.648Z,15.70
2019-05-05T05:21:14.665Z,16.30
2019-05-05T05:23:44.545Z,16.90
2019-05-05T05:26:16.152Z,17.30
2019-05-05T05:28:45.210Z,17.60
2019-05-05T05:31:14.322Z,17.90
2019-05-05T05:33:43.712Z,18.20
2019-05-05T05:36:17.488Z,18.70
2019-05-05T05:38:48.418Z,19.10
2019-05-05T05:41:36.718Z,19.30
2019-05-05T05:44:17.497Z,19.60
2019-05-05T05:46:54.651Z,19.50
2019-05-05T05:49:28.349Z,19.80
2019-05-05T05:52:12.391Z,20.20
2019-05-05T05:54:33.915Z,20.30
2019-05-05T05:57:04.310Z,20.50
2019-05-05T05:59:34.592Z,20.30
2019-05-05T06:02:09.883Z,20.50
2019-05-05T06:04:34.548Z,20.90
2019-05-05T06:07:09.010Z,20.90
2019-05-05T06:09:38.163Z,21.10
2019-05-05T06:12:10.531Z,21.10
2019-05-05T06:14:39.808Z,21.30
2019-05-05T06:17:13.518Z,21.90
2019-05-05T06:19:44.655Z,22.40
2019-05-05T06:22:28.103Z,22.60
2019-05-05T06:24:53.952Z,22.70
2019-05-05T06:27:20.111Z,23.10
2019-05-05T06:29:51.055Z,23.50
2019-05-05T06:32:20.129Z,24.00
2019-05-05T06:34:49.100Z,24.30
2019-05-05T06:37:18.255Z,24.80
2019-05-05T06:39:49.071Z,25.30
2019-05-05T06:42:28.097Z,25.20
2019-05-05T06:45:07.487Z,25.30
2019-05-05T06:47:40.062Z,25.90
2019-05-05T06:50:09.109Z,26.30
2019-05-05T06:52:44.128Z,26.70
2019-05-05T06:55:11.087Z,26.90
2019-05-05T06:57:44.439Z,27.70
2019-05-05T07:00:16.480Z,28.20
2019-05-05T07:02:45.538Z,28.00
2019-05-05T07:05:17.566Z,28.10
2019-05-05T07:07:46.980Z,28.40
2019-05-05T07:10:16.692Z,29.10
2019-05-05T07:12:46.165Z,29.60
2019-05-05T07:15:15.290Z,29.80
2019-05-05T07:17:47.280Z,29.90
2019-05-05T07:20:19.020Z,30.40
2019-05-05T07:22:58.978Z,30.70
2019-05-05T07:25:20.953Z,30.70
2019-05-05T07:27:51.173Z,31.20
2019-05-05T07:30:20.611Z,31.60
2019-05-05T07:32:49.944Z,32.10
2019-05-05T07:35:28.961Z,32.30
2019-05-05T07:37:59.689Z,32.30
2019-05-05T07:40:28.680Z,32.40
2019-05-05T07:42:58.040Z,32.40
2019-05-05T07:45:27.056Z,32.40
2019-05-05T07:47:56.093Z,32.80
2019-05-05T07:50:31.974Z,33.20
2019-05-05T07:52:56.165Z,33.20
2019-05-05T07:55:25.196Z,33.60
2019-05-05T07:58:04.368Z,33.60
2019-05-05T08:00:35.559Z,33.40
2019-05-05T08:03:04.552Z,33.50
2019-05-05T08:05:33.875Z,33.80
2019-05-05T08:08:04.622Z,33.70
2019-05-05T08:10:34.440Z,33.70
2019-05-05T08:13:04.658Z,33.90
2019-05-05T08:15:36.927Z,34.30
2019-05-05T08:18:16.859Z,34.30
2019-05-05T08:20:49.110Z,34.30
2019-05-05T08:23:41.302Z,34.50
2019-05-05T08:26:26.815Z,35.20
2019-05-05T08:29:00.870Z,35.50
2019-05-05T08:31:56.162Z,35.40
2019-05-05T08:34:26.763Z,35.50
2019-05-05T08:36:59.921Z,35.90
2019-05-05T08:39:29.103Z,35.60
2019-05-05T08:42:04.312Z,33.00
2019-05-05T08:44:34.396Z,33.30
2019-05-05T08:47:07.464Z,33.10
2019-05-05T08:49:39.075Z,32.70
2019-05-05T08:52:08.420Z,29.20
2019-05-05T08:54:40.145Z,28.60
2019-05-05T08:57:09.512Z,31.10
2019-05-05T08:59:44.875Z,32.60
2019-05-05T09:02:16.984Z,33.20
2019-05-05T09:04:49.262Z,30.40
2019-05-05T09:07:24.342Z,31.50
2019-05-05T09:09:56.971Z,34.30
2019-05-05T09:12:28.120Z,35.70
2019-05-05T09:14:57.842Z,36.30
2019-05-05T09:17:28.455Z,35.40
2019-05-05T09:20:04.537Z,30.80
2019-05-05T09:22:34.898Z,27.50
2019-05-05T09:25:38.677Z,27.20
2019-05-05T09:28:14.790Z,29.40
2019-05-05T09:30:45.298Z,32.00
2019-05-05T09:33:18.054Z,32.40
2019-05-05T09:35:45.223Z,34.10
2019-05-05T09:38:14.770Z,35.10
2019-05-05T09:40:44.163Z,36.60
2019-05-05T09:43:14.740Z,38.60
2019-05-05T09:45:44.301Z,38.50
2019-05-05T09:48:13.965Z,35.60
2019-05-05T09:50:43.867Z,33.90
2019-05-05T09:53:14.601Z,29.90
2019-05-05T09:55:44.370Z,27.20
2019-05-05T09:58:13.787Z,24.40
2019-05-05T10:00:44.877Z,23.20
2019-05-05T10:03:39.277Z,23.50
2019-05-05T10:05:59.963Z,26.10
2019-05-05T10:08:38.236Z,24.60
2019-05-05T10:11:07.200Z,26.70
2019-05-05T10:13:36.395Z,31.30
2019-05-05T10:16:05.768Z,34.60
2019-05-05T10:18:36.002Z,35.50
2019-05-05T10:21:05.024Z,34.30
2019-05-05T10:23:37.494Z,29.60
2019-05-05T10:26:09.221Z,26.00
2019-05-05T10:28:38.254Z,23.60
2019-05-05T10:31:07.440Z,21.50
2019-05-05T10:33:40.019Z,20.40
2019-05-05T10:36:09.288Z,19.30
2019-05-05T10:38:40.441Z,18.20
2019-05-05T10:41:09.774Z,17.40
2019-05-05T10:43:38.914Z,16.90
2019-05-05T10:46:09.896Z,17.00
2019-05-05T10:48:39.004Z,17.70
2019-05-05T10:51:08.273Z,19.80
2019-05-05T10:53:37.645Z,21.00
2019-05-05T10:56:06.725Z,21.00
2019-05-05T10:58:35.689Z,20.60
2019-05-05T11:01:04.856Z,19.70
2019-05-05T11:03:38.263Z,18.90
2019-05-05T11:06:07.298Z,18.00
2019-05-05T11:08:37.210Z,17.10
2019-05-05T11:11:07.638Z,16.40
2019-05-05T11:13:37.687Z,15.80
2019-05-05T11:16:07.977Z,15.60
2019-05-05T11:18:38.198Z,15.70
2019-05-05T11:21:09.856Z,15.80
2019-05-05T11:23:41.425Z,15.80
2019-05-05T11:26:11.620Z,16.10
2019-05-05T11:28:41.607Z,15.80
2019-05-05T11:34:24.664Z,15.90
2019-05-05T11:37:05.361Z,15.90
2019-05-05T11:39:35.297Z,15.90
2019-05-05T11:42:07.381Z,16.30
2019-05-05T11:44:37.503Z,16.80
2019-05-05T11:47:07.643Z,17.20
2019-05-05T11:49:46.949Z,17.60
2019-05-05T11:52:17.223Z,17.70
2019-05-05T11:54:47.378Z,17.60
2019-05-05T11:58:24.828Z,17.40
2019-05-05T12:00:34.736Z,17.30
2019-05-05T12:03:05.129Z,17.00
2019-05-05T12:06:18.376Z,16.90
2019-05-05T12:08:48.554Z,16.80
2019-05-05T12:11:20.526Z,16.60
2019-05-05T12:13:50.850Z,16.40
2019-05-05T12:16:39.193Z,16.40
2019-05-05T12:19:15.454Z,16.50
2019-05-05T12:21:49.282Z,16.80
2019-05-05T12:24:25.724Z,17.30
2019-05-05T12:27:14.233Z,17.80
2019-05-05T12:29:54.658Z,18.30
2019-05-05T12:32:24.823Z,18.50
2019-05-05T12:34:55.029Z,18.30
2019-05-05T12:37:25.879Z,17.70
2019-05-05T12:39:55.993Z,17.10
2019-05-05T12:42:34.141Z,17.00
2019-05-05T12:45:09.971Z,16.90
2019-05-05T12:48:01.484Z,16.70
2019-05-05T12:50:36.303Z,16.60
2019-05-05T12:53:49.240Z,16.30
2019-05-05T12:56:30.188Z,16.00
2019-05-05T12:59:18.650Z,15.70
2019-05-05T13:02:04.083Z,15.60
2019-05-05T13:05:00.692Z,15.50
2019-05-05T13:07:34.107Z,15.40
2019-05-05T13:10:17.811Z,15.60
2019-05-05T13:13:07.984Z,15.90
2019-05-05T13:15:40.721Z,15.80
2019-05-05T13:18:16.999Z,15.90
2019-05-05T13:21:19.968Z,16.00
2019-05-05T13:24:08.954Z,16.10
2019-05-05T13:27:09.680Z,16.00
2019-05-05T13:29:44.251Z,15.90
2019-05-05T13:32:16.574Z,15.80
2019-05-05T13:34:46.918Z,15.70
2019-05-05T13:37:24.450Z,15.60
2019-05-05T13:39:55.062Z,15.30
2019-05-05T13:42:41.284Z,14.80
2019-05-05T13:45:34.292Z,14.30
2019-05-05T13:48:04.776Z,13.90
2019-05-05T13:50:40.750Z,13.70
2019-05-05T13:53:14.394Z,13.50
2019-05-05T13:55:47.675Z,13.40
2019-05-05T13:58:22.084Z,13.60
2019-05-05T14:00:54.651Z,13.80
2019-05-05T14:03:25.201Z,14.00
2019-05-05T14:05:55.594Z,14.00
2019-05-05T14:08:26.125Z,13.80
2019-05-05T14:10:56.541Z,13.60
2019-05-05T14:13:26.934Z,13.30
2019-05-05T14:16:03.826Z,13.00
2019-05-05T14:18:36.943Z,12.70
2019-05-05T14:21:07.695Z,12.60
2019-05-05T14:23:58.938Z,12.50
2019-05-05T14:26:32.125Z,12.40
2019-05-05T14:29:05.185Z,12.20
2019-05-05T14:32:20.376Z,12.00
2019-05-05T14:35:08.788Z,11.90
2019-05-05T14:38:08.367Z,11.80
2019-05-05T14:40:39.169Z,11.90
2019-05-05T14:43:16.770Z,12.20
2019-05-05T14:45:50.975Z,12.30
2019-05-05T14:48:27.289Z,12.50
2019-05-05T14:51:21.482Z,12.50
2019-05-05T14:53:51.239Z,12.50
2019-05-05T14:56:36.198Z,12.60
2019-05-05T14:58:58.544Z,12.80
2019-05-05T15:01:40.097Z,13.10
2019-05-05T15:04:45.335Z,13.50
2019-05-05T15:07:14.521Z,13.90
2019-05-05T15:09:56.058Z,14.30
2019-05-05T15:12:35.756Z,14.60
2019-05-05T15:15:14.234Z,14.60
2019-05-05T15:17:46.108Z,14.50
2019-05-05T15:20:24.524Z,14.40
2019-05-05T15:22:54.737Z,14.40
2019-05-05T15:25:25.479Z,14.20
2019-05-05T15:27:57.693Z,14.00
2019-05-05T15:31:38.062Z,13.80
2019-05-05T15:34:11.341Z,13.80
2019-05-05T15:36:43.953Z,13.90
2019-05-05T15:39:14.049Z,14.00
2019-05-05T15:41:45.917Z,13.90
2019-05-05T15:44:19.833Z,13.80
2019-05-05T15:46:58.036Z,13.60
2019-05-05T15:50:06.149Z,13.40
2019-05-05T15:52:38.648Z,13.30
2019-05-05T15:55:15.177Z,13.10
2019-05-05T15:57:53.278Z,13.10
2019-05-05T16:00:46.539Z,13.20
2019-05-05T16:03:24.881Z,13.40
2019-05-05T16:05:59.336Z,13.50
2019-05-05T16:08:31.304Z,13.30
2019-05-05T16:11:15.370Z,13.30
2019-05-05T16:14:14.435Z,13.40
2019-05-05T16:17:13.847Z,13.50
2019-05-05T16:23:30.382Z,13.20
2019-05-05T16:26:03.824Z,13.00
2019-05-05T16:37:28.434Z,12.80
2019-05-05T16:44:15.822Z,12.90
2019-05-05T16:54:18.671Z,12.60
2019-05-05T16:56:49.455Z,12.40
2019-05-05T16:59:24.263Z,12.40
2019-05-05T17:02:06.309Z,12.30
2019-05-05T17:05:20.542Z,12.30
2019-05-05T17:23:16.730Z,11.60
2019-05-05T17:26:17.414Z,11.30
2019-05-05T17:29:16.704Z,11.20
2019-05-05T17:31:56.695Z,11.00
2019-05-05T17:34:31.135Z,10.90
2019-05-05T17:37:56.258Z,10.90
2019-05-05T17:41:10.967Z,10.90
2019-05-05T17:44:05.369Z,10.90
2019-05-05T17:47:26.423Z,10.90
2019-05-05T17:50:06.820Z,11.00
2019-05-05T17:52:56.928Z,11.10
2019-05-05T17:55:54.934Z,11.00
2019-05-05T17:58:28.274Z,10.90
2019-05-05T18:01:00.323Z,10.80
2019-05-05T18:03:33.974Z,10.70
2019-05-05T18:06:18.142Z,10.60
2019-05-05T18:10:07.836Z,10.40
2019-05-05T18:13:08.361Z,10.30
2019-05-05T18:18:59.507Z,9.80
2019-05-05T18:22:28.350Z,9.60
2019-05-05T18:25:01.980Z,9.50
2019-05-05T18:28:27.704Z,9.30
2019-05-05T18:31:19.200Z,9.20
2019-05-05T18:33:49.371Z,9.00
2019-05-05T18:36:19.797Z,8.90
2019-05-05T18:38:49.857Z,8.70
2019-05-05T18:41:27.157Z,8.70
2019-05-05T18:44:05.098Z,8.60
2019-05-05T18:46:37.334Z,8.40
2019-05-05T18:49:29.721Z,8.40
2019-05-05T18:52:05.601Z,8.30
2019-05-05T18:55:06.146Z,8.20
2019-05-05T18:57:48.331Z,8.10
2019-05-05T19:00:55.257Z,8.00
2019-05-05T19:04:26.360Z,7.90
2019-05-05T19:07:33.569Z,7.70
2019-05-05T19:10:09.988Z,7.60
2019-05-05T19:16:55.277Z,7.50
2019-05-05T19:19:34.566Z,7.40
2019-05-05T19:22:10.030Z,7.40
2019-05-05T19:24:47.381Z,7.40
2019-05-05T19:27:18.092Z,7.20
2019-05-05T19:30:25.594Z,7.20
2019-05-05T19:32:59.808Z,7.10
2019-05-05T19:36:05.045Z,7.00
2019-05-05T19:38:45.894Z,6.90
2019-05-05T19:41:19.441Z,6.80
2019-05-05T19:43:54.909Z,6.80
2019-05-05T19:46:36.178Z,6.80
2019-05-05T19:49:16.525Z,6.80
2019-05-05T19:51:54.078Z,6.70
2019-05-05T19:54:28.505Z,6.70
2019-05-05T19:57:03.794Z,6.70
2019-05-05T19:59:37.205Z,6.70
2019-05-05T20:02:17.597Z,6.60
2019-05-05T20:04:50.947Z,6.40
2019-05-05T20:07:22.188Z,6.30
2019-05-05T20:09:57.287Z,6.30
2019-05-05T20:12:33.515Z,6.20
2019-05-05T20:15:20.454Z,6.20
2019-05-05T20:17:56.021Z,6.10
2019-05-05T20:20:26.823Z,6.10
2019-05-05T20:22:59.094Z,6.10
2019-05-05T20:25:31.214Z,6.00
2019-05-05T20:28:05.431Z,6.00
2019-05-05T20:30:51.194Z,5.90
2019-05-05T20:33:42.570Z,5.90
2019-05-05T20:36:25.423Z,5.80
2019-05-05T20:39:09.783Z,5.80
2019-05-05T20:41:46.968Z,5.70
2019-05-05T20:44:18.038Z,5.70
2019-05-05T20:47:34.444Z,5.60
2019-05-05T20:50:16.577Z,5.60
2019-05-05T20:52:50.648Z,5.60
2019-05-05T21:03:01.667Z,5.40
2019-05-05T21:05:57.056Z,5.30
2019-05-05T21:08:57.692Z,5.20
2019-05-05T21:11:54.568Z,5.10
2019-05-05T21:14:55.737Z,5.00
2019-05-05T21:18:06.176Z,5.00
2019-05-05T21:21:10.260Z,5.00
2019-05-05T21:23:59.530Z,5.00
2019-05-05T21:30:53.795Z,4.90
2019-05-05T21:33:47.248Z,4.80
2019-05-05T21:37:05.130Z,4.70
2019-05-05T22:00:04.345Z,4.60
2019-05-05T22:03:11.305Z,4.60
2019-05-05T22:06:21.299Z,4.80
2019-05-05T22:52:31.398Z,4.70
2019-05-05T22:55:08.946Z,4.60
2019-05-05T22:57:42.228Z,4.50
2019-05-05T23:00:26.060Z,4.40
2019-05-05T23:03:13.699Z,4.30
2019-05-05T23:06:00.857Z,4.20
2019-05-05T23:08:48.441Z,4.20
2019-05-05T23:11:20.442Z,4.20
2019-05-05T23:13:57.285Z,4.20
2019-05-05T23:16:44.311Z,4.20
2019-05-05T23:20:13.868Z,4.20
2019-05-05T23:23:01.416Z,4.30
2019-05-05T23:25:39.973Z,4.40
2019-05-05T23:28:11.939Z,4.60
2019-05-05T23:30:50.443Z,4.70
2019-05-05T23:33:24.987Z,4.70
2019-05-05T23:36:09.853Z,4.70
2019-05-05T23:38:45.428Z,4.70
2019-05-05T23:41:19.093Z,4.70
2019-05-05T23:43:51.260Z,4.60
2019-05-05T23:46:26.797Z,4.60
2019-05-05T23:48:58.293Z,4.50
2019-05-05T23:51:31.674Z,4.50
2019-05-05T23:54:07.028Z,4.50
2019-05-05T23:56:37.229Z,4.40
2019-05-05T23:59:11.010Z,4.40
